Time,TemperatureF,DewpointF,PressureIn,WindDirection,WindDirectionDegrees,WindSpeedMPH,WindSpeedGustMPH,Humidity,HourlyPrecipIn,Conditions,Clouds,dailyrainin,SolarRadiationWatts/m^2,SoftwareType,DateUTC
2013-07-06 00:01:00,66.0,44.0,-100.00,East,90,0.0,0.0,45,0.00,,,0.00,0.000000,,2013-07-06 07:01:00,
2013-07-06 00:12:00,66.0,44.0,-100.00,East,90,0.0,0.0,45,0.00,,,0.00,0.000000,,2013-07-06 07:12:00,
2013-07-06 00:44:00,68.0,45.0,-100.00,NNE,21,0.0,0.0,44,0.00,,,0.00,0.000000,,2013-07-06 07:44:00,
2013-07-06 00:52:00,68.0,45.0,-100.00,NNE,21,0.0,0.0,44,0.00,,,0.00,0.000000,,2013-07-06 07:52:00,
2013-07-06 01:02:00,68.0,45.0,-100.00,NNE,21,0.0,0.0,44,0.00,,,0.00,0.000000,,2013-07-06 08:02:00,
2013-07-06 01:11:00,68.0,45.0,-100.00,NNE,21,0.0,0.0,44,0.00,,,0.00,0.000000,,2013-07-06 08:11:00,
2013-07-06 01:43:00,68.0,46.0,-100.00,NNW,338,0.0,0.0,46,0.00,,,0.00,0.000000,,2013-07-06 08:43:00,
2013-07-06 01:54:00,68.0,46.0,-100.00,NNW,338,0.0,0.0,46,0.00,,,0.00,0.000000,,2013-07-06 08:54:00,
2013-07-06 02:02:00,68.0,46.0,-100.00,NNW,338,0.0,0.0,46,0.00,,,0.00,0.000000,,2013-07-06 09:02:00,
2013-07-06 02:11:00,68.0,46.0,-100.00,NNW,338,0.0,0.0,46,0.00,,,0.00,0.000000,,2013-07-06 09:11:00,
2013-07-06 02:43:00,66.0,46.0,-100.00,East,85,0.0,0.0,48,0.00,,,0.00,0.000000,,2013-07-06 09:43:00,
2013-07-06 02:53:00,66.0,46.0,-100.00,East,85,0.0,0.0,48,0.00,,,0.00,0.000000,,2013-07-06 09:53:00,
2013-07-06 03:02:00,66.0,46.0,-100.00,East,85,0.0,0.0,48,0.00,,,0.00,0.000000,,2013-07-06 10:02:00,
2013-07-06 03:11:00,66.0,46.0,-100.00,East,85,0.0,0.0,48,0.00,,,0.00,0.000000,,2013-07-06 10:11:00,
2013-07-06 03:43:00,66.0,45.0,-100.00,WNW,290,0.0,0.0,46,0.00,,,0.00,0.000000,,2013-07-06 10:43:00,
2013-07-06 03:53:00,66.0,45.0,-100.00,WNW,290,0.0,0.0,46,0.00,,,0.00,0.000000,,2013-07-06 10:53:00,
2013-07-06 04:01:00,66.0,45.0,-100.00,WNW,290,0.0,0.0,46,0.00,,,0.00,0.000000,,2013-07-06 11:01:00,
2013-07-06 04:11:00,66.0,45.0,-100.00,WNW,290,0.0,0.0,46,0.00,,,0.00,0.000000,,2013-07-06 11:11:00,
2013-07-06 04:43:00,66.0,43.0,-100.00,North,2,0.0,0.0,43,0.00,,,0.00,0.000000,,2013-07-06 11:43:00,
2013-07-06 04:53:00,66.0,43.0,-100.00,North,2,0.0,0.0,43,0.00,,,0.00,0.000000,,2013-07-06 11:53:00,
2013-07-06 05:01:00,66.0,43.0,-100.00,North,2,0.0,0.0,43,0.00,,,0.00,0.000000,,2013-07-06 12:01:00,
2013-07-06 05:11:00,66.0,43.0,-100.00,North,2,0.0,0.0,43,0.00,,,0.00,0.000000,,2013-07-06 12:11:00,
2013-07-06 05:43:00,66.0,43.0,-100.00,East,96,0.0,4.0,44,0.00,,,0.00,0.000000,,2013-07-06 12:43:00,
2013-07-06 05:52:00,66.0,43.0,-100.00,East,96,0.0,4.0,44,0.00,,,0.00,0.000000,,2013-07-06 12:52:00,
2013-07-06 06:01:00,66.0,43.0,-100.00,East,96,0.0,4.0,44,0.00,,,0.00,0.000000,,2013-07-06 13:01:00,
2013-07-06 06:11:00,66.0,43.0,-100.00,East,96,0.0,4.0,44,0.00,,,0.00,0.000000,,2013-07-06 13:11:00,
2013-07-06 06:43:00,66.0,42.0,-100.00,East,91,0.0,0.0,42,0.00,,,0.00,7.000000,,2013-07-06 13:43:00,
2013-07-06 06:52:00,66.0,42.0,-100.00,East,91,0.0,0.0,42,0.00,,,0.00,7.000000,,2013-07-06 13:52:00,
2013-07-06 07:02:00,66.0,42.0,-100.00,East,91,0.0,0.0,42,0.00,,,0.00,7.000000,,2013-07-06 14:02:00,
2013-07-06 07:11:00,66.0,42.0,-100.00,East,91,0.0,0.0,42,0.00,,,0.00,7.000000,,2013-07-06 14:11:00,
2013-07-06 07:42:00,68.0,42.0,-100.00,ESE,119,0.0,3.0,39,0.00,,,0.00,56.000000,,2013-07-06 14:42:00,
2013-07-06 07:53:00,68.0,42.0,-100.00,ESE,119,0.0,3.0,39,0.00,,,0.00,56.000000,,2013-07-06 14:53:00,
2013-07-06 08:02:00,68.0,42.0,-100.00,ESE,119,0.0,3.0,39,0.00,,,0.00,56.000000,,2013-07-06 15:02:00,
2013-07-06 08:12:00,68.0,42.0,-100.00,ESE,119,0.0,3.0,39,0.00,,,0.00,56.000000,,2013-07-06 15:12:00,
2013-07-06 08:43:00,79.0,47.0,-100.00,WSW,253,0.0,0.0,32,0.00,,,0.00,240.000000,,2013-07-06 15:43:00,
2013-07-06 08:53:00,79.0,47.0,-100.00,WSW,253,0.0,0.0,32,0.00,,,0.00,240.000000,,2013-07-06 15:53:00,
2013-07-06 09:04:00,79.0,47.0,-100.00,WSW,253,0.0,0.0,32,0.00,,,0.00,240.000000,,2013-07-06 16:04:00,
2013-07-06 10:14:00,85.0,44.0,-100.00,West,262,3.0,6.0,24,0.00,,,0.00,592.000000,,2013-07-06 17:14:00,
2013-07-06 11:05:00,91.0,44.0,-100.00,NW,318,3.0,7.0,20,0.00,,,0.00,881.000000,,2013-07-06 18:05:00,
2013-07-06 11:59:00,90.0,46.0,-100.00,West,271,3.0,9.0,22,0.00,,,0.00,848.000000,,2013-07-06 18:59:00,
2013-07-06 12:05:00,90.0,46.0,-100.00,West,271,3.0,9.0,22,0.00,,,0.00,848.000000,,2013-07-06 19:05:00,
2013-07-06 12:14:00,90.0,46.0,-100.00,West,271,3.0,9.0,22,0.00,,,0.00,848.000000,,2013-07-06 19:14:00,
2013-07-06 13:02:00,87.0,49.0,-100.00,WNW,288,3.0,11.0,27,0.00,,,0.00,970.000000,,2013-07-06 20:02:00,
2013-07-06 13:14:00,87.0,49.0,-100.00,WNW,288,3.0,11.0,27,0.00,,,0.00,970.000000,,2013-07-06 20:14:00,
2013-07-06 13:59:00,87.0,45.0,-100.00,West,266,4.0,11.0,23,0.00,,,0.00,889.000000,,2013-07-06 20:59:00,
2013-07-06 14:05:00,87.0,45.0,-100.00,West,266,4.0,11.0,23,0.00,,,0.00,889.000000,,2013-07-06 21:05:00,
2013-07-06 14:14:00,87.0,45.0,-100.00,West,266,4.0,11.0,23,0.00,,,0.00,889.000000,,2013-07-06 21:14:00,
2013-07-06 14:59:00,89.0,43.0,-100.00,WSW,256,5.0,12.0,20,0.00,,,-99.99,1071.000000,,2013-07-06 21:59:00,
2013-07-06 15:04:00,89.0,43.0,-100.00,WSW,256,5.0,12.0,20,0.00,,,-99.99,1071.000000,,2013-07-06 22:04:00,
2013-07-06 15:14:00,89.0,43.0,-100.00,WSW,256,5.0,12.0,20,0.00,,,-99.99,1071.000000,,2013-07-06 22:14:00,
2013-07-06 16:05:00,89.0,46.0,-100.00,North,6,6.0,12.0,23,0.00,,,0.00,1052.000000,,2013-07-06 23:05:00,
2013-07-06 16:14:00,89.0,46.0,-100.00,North,6,6.0,12.0,23,0.00,,,0.00,1052.000000,,2013-07-06 23:14:00,
2013-07-06 16:57:00,87.0,46.0,-100.00,NW,321,6.0,14.0,24,0.00,,,0.00,822.000000,,2013-07-06 23:57:00,
2013-07-06 17:06:00,87.0,46.0,-100.00,NW,321,6.0,14.0,24,0.00,,,0.00,822.000000,,2013-07-07 00:06:00,
2013-07-06 18:57:00,82.0,53.0,-100.00,NE,55,5.0,16.0,37,-99.99,,,0.00,408.000000,,2013-07-07 01:57:00,
2013-07-06 19:04:00,82.0,53.0,-100.00,NE,55,5.0,16.0,37,-99.99,,,0.00,408.000000,,2013-07-07 02:04:00,
2013-07-06 19:13:00,82.0,53.0,-100.00,NE,55,5.0,16.0,37,-99.99,,,0.00,408.000000,,2013-07-07 02:13:00,
2013-07-06 19:58:00,79.0,55.0,-100.00,WNW,285,3.0,12.0,43,0.00,,,0.00,206.000000,,2013-07-07 02:58:00,
2013-07-06 20:04:00,79.0,55.0,-100.00,WNW,285,3.0,12.0,43,0.00,,,0.00,206.000000,,2013-07-07 03:04:00,
2013-07-06 20:12:00,79.0,55.0,-100.00,WNW,285,3.0,12.0,43,0.00,,,0.00,206.000000,,2013-07-07 03:12:00,
2013-07-06 21:01:00,71.0,52.0,-100.00,WNW,302,0.0,11.0,52,0.00,,,0.00,32.000000,,2013-07-07 04:01:00,
2013-07-06 21:11:00,71.0,52.0,-100.00,WNW,302,0.0,11.0,52,0.00,,,0.00,32.000000,,2013-07-07 04:11:00,
2013-07-06 21:41:00,66.0,53.0,-100.00,ESE,105,0.0,4.0,62,0.00,,,0.00,0.000000,,2013-07-07 04:41:00,
2013-07-06 21:51:00,66.0,53.0,-100.00,ESE,105,0.0,4.0,62,0.00,,,0.00,0.000000,,2013-07-07 04:51:00,
2013-07-06 22:01:00,66.0,53.0,-100.00,ESE,105,0.0,4.0,62,0.00,,,0.00,0.000000,,2013-07-07 05:01:00,
2013-07-06 22:11:00,66.0,53.0,-100.00,ESE,105,0.0,4.0,62,0.00,,,0.00,0.000000,,2013-07-07 05:11:00,
2013-07-06 22:41:00,67.0,53.0,-100.00,East,95,0.0,4.0,60,0.00,,,0.00,0.000000,,2013-07-07 05:41:00,
2013-07-06 22:51:00,67.0,53.0,-100.00,East,95,0.0,4.0,60,0.00,,,0.00,0.000000,,2013-07-07 05:51:00,
2013-07-06 23:01:00,67.0,53.0,-100.00,East,95,0.0,4.0,60,0.00,,,0.00,0.000000,,2013-07-07 06:01:00,
2013-07-06 23:11:00,67.0,53.0,-100.00,East,95,0.0,4.0,60,0.00,,,0.00,0.000000,,2013-07-07 06:11:00,
2013-07-06 23:43:00,66.0,47.0,-100.00,ENE,60,0.0,0.0,51,0.00,,,0.00,0.000000,,2013-07-07 06:43:00,
2013-07-06 23:52:00,66.0,47.0,-100.00,ENE,60,0.0,0.0,51,0.00,,,0.00,0.000000,,2013-07-07 06:52:00,